Terminal Aerodrome Forecast
Issued by NWS Cleveland, OH

Home | Current Version | Previous Version | Graphics & Text | Print | Product List | Glossary On
Versions: 1 2 3 4 5 6 7 8 9 10 11 12 13 14 15 16 17 18
241
FTUS41 KCLE 222326
TAFMFD
TAF
KMFD 222326Z 2300/2324 VRB03KT P6SM SKC
     FM231600 20006KT P6SM SCT045
     FM232300 16003KT P6SM SCT250=

USA.gov is the U.S. government's official web portal to all federal, state and local government web resources and services.